Pagrindinis puslapis
METAR-TAF:

METAR-TAF

Oro uostai :

Pjačenca, Italija

platuma: 44-55N, ilguma: 009-44E, Aukštis: 134 m

Dabartinis oras

Ataskaita buvo paskelbta 1 valandą ir 5 minutes, ne 09:55 UTC
Vėjas 6 kt iš Rytų
Temperatūra 19°C
Drėgmė 60%
Slėgis 1024 hPa
Matomumas 10 km arba daugiau
nėra debesų žemiau 1500 m ir nėra kamuolinių lietaus debesų

METAR: LIMS 210955Z 08006KT CAVOK 19/11 Q1024 RMK FEW FEW200 VIS MIN 9999 WIND THR30 09007KT BLU

Laikas: 13:00 (11:00 UTC)


TAF: trūkstamas

Orai ataskaitas ir orų prognozės (METAR, TAF).

turimą stotys yra geltonos ir raudonos taškus žemėlapyje.

Perkelti pele per norėdami pamatyti stoties vardą.

Tada spustelėkite, norėdami matyti oro stebėjimo ir prognozės.

Norėdami pakeisti žemėlapį: spustelėkite ant žalios mygtukų su juodo kryžiaus žemyn,; žalią mygtuką su brūkšneliu, jei norite nutolinti; arba žalių rodyklių gretimoms žemėlapius.


METAR-TAF: